Time;durP1;ratioP1;P1;durP2;ratioP2;P2;SDS_P1;SDS_P2;PMS_P1;PMS_P2;Temp;Humidity;BMP_temperature;BMP_pressure;BME280_temperature;BME280_humidity;BME280_pressure;Samples;Min_cycle;Max_cycle;Signal;HPM_P1;HPM_P2
2021/12/13 00:01:15;;;;;;;1.15;0.80;;;7.10;99.90;;;;;;6142199;23;20219;-75
2021/12/13 00:03:50;;;;;;;1.45;1.13;;;7.00;99.90;;;;;;6148959;23;20201;-74
2021/12/13 00:06:26;;;;;;;1.05;0.63;;;7.00;99.90;;;;;;6149221;23;20214;-74
2021/12/13 00:09:11;;;;;;;1.17;0.70;;;6.90;99.90;;;;;;6151659;23;20189;-76
2021/12/13 00:11:46;;;;;;;0.73;0.73;;;7.00;99.90;;;;;;6150324;23;20222;-73
2021/12/13 00:14:20;;;;;;;1.65;0.80;;;7.00;99.90;;;;;;6145796;23;20279;-76
2021/12/13 00:16:59;;;;;;;1.67;1.00;;;7.00;99.90;;;;;;6142589;23;20187;-72
2021/12/13 00:19:39;;;;;;;0.80;0.45;;;6.90;99.90;;;;;;6147794;23;20274;-73
2021/12/13 00:22:15;;;;;;;0.50;0.43;;;6.90;99.90;;;;;;6149465;23;20187;-73
2021/12/13 00:24:52;;;;;;;3.05;0.75;;;6.70;99.90;;;;;;6148627;23;20262;-73
2021/12/13 00:27:27;;;;;;;1.00;0.90;;;6.60;99.90;;;;;;6148737;23;20588;-71
2021/12/13 00:30:08;;;;;;;1.15;1.05;;;6.60;99.90;;;;;;6146909;23;20218;-73
2021/12/13 00:32:46;;;;;;;1.77;1.00;;;6.60;99.90;;;;;;6147693;23;20620;-73
2021/12/13 00:35:23;;;;;;;1.20;1.10;;;6.50;99.90;;;;;;6147612;23;20536;-73
2021/12/13 00:37:59;;;;;;;2.00;1.33;;;6.50;99.90;;;;;;6145248;23;20197;-73
2021/12/13 00:40:34;;;;;;;2.72;1.20;;;6.50;99.90;;;;;;6146904;23;20183;-73
2021/12/13 00:43:12;;;;;;;5.10;1.55;;;6.50;99.90;;;;;;6149734;23;20202;-74
2021/12/13 00:45:50;;;;;;;1.70;1.60;;;6.40;99.90;;;;;;6149220;23;20179;-72
2021/12/13 00:48:22;;;;;;;2.05;1.77;;;6.30;99.90;;;;;;6146220;23;20316;-72
2021/12/13 00:51:01;;;;;;;2.95;1.60;;;6.30;99.90;;;;;;6149088;23;20190;-73
2021/12/13 00:53:37;;;;;;;1.42;1.30;;;6.20;99.90;;;;;;6149353;23;21246;-72
2021/12/13 00:56:46;;;;;;;2.08;1.80;;;6.20;99.90;;;;;;6147388;23;20203;-73
2021/12/13 00:59:25;;;;;;;1.90;1.80;;;6.20;99.90;;;;;;6146220;23;20383;-73
2021/12/13 01:02:01;;;;;;;2.97;1.88;;;6.30;99.90;;;;;;6149277;23;20209;-73
2021/12/13 01:04:50;;;;;;;2.67;2.22;;;6.30;99.90;;;;;;6147949;23;20187;-73
2021/12/13 01:07:59;;;;;;;3.03;2.55;;;6.20;99.90;;;;;;6148333;23;20191;-72
2021/12/13 01:11:11;;;;;;;3.20;2.88;;;6.20;99.90;;;;;;6116974;23;20187;-73
2021/12/13 01:14:10;;;;;;;4.00;3.60;;;6.30;99.90;;;;;;6149440;23;20209;-73
2021/12/13 01:16:57;;;;;;;3.97;3.58;;;6.40;99.90;;;;;;6058905;23;20205;-75
2021/12/13 01:19:47;;;;;;;5.00;3.28;;;6.40;99.90;;;;;;6139456;23;20183;-73
2021/12/13 01:22:42;;;;;;;3.42;2.80;;;6.40;99.90;;;;;;6146881;23;20187;-73
2021/12/13 01:25:25;;;;;;;2.95;2.75;;;6.30;99.90;;;;;;6146632;23;20210;-74
2021/12/13 01:28:01;;;;;;;6.57;3.85;;;6.30;99.90;;;;;;6146893;23;20512;-73
2021/12/13 01:30:41;;;;;;;4.63;4.25;;;6.30;99.90;;;;;;6147287;23;20183;-73
2021/12/13 01:33:16;;;;;;;6.45;3.90;;;6.30;99.90;;;;;;6147512;23;20289;-73
2021/12/13 01:35:51;;;;;;;3.60;3.30;;;6.40;99.90;;;;;;6149292;23;20218;-73
2021/12/13 01:38:32;;;;;;;6.20;3.78;;;6.40;99.90;;;;;;6148569;23;20537;-73
2021/12/13 01:41:08;;;;;;;3.83;3.53;;;6.40;99.90;;;;;;6146223;23;20184;-74
2021/12/13 01:43:43;;;;;;;4.07;3.67;;;6.50;99.90;;;;;;6148439;23;20183;-73
2021/12/13 01:46:14;;;;;;;4.05;3.50;;;6.50;99.90;;;;;;6147338;23;20201;-72
2021/12/13 01:48:48;;;;;;;3.75;3.45;;;6.40;99.90;;;;;;6147912;23;20187;-73
2021/12/13 01:51:21;;;;;;;4.85;4.03;;;6.40;99.90;;;;;;6146834;23;20250;-73
2021/12/13 01:53:54;;;;;;;4.10;3.78;;;6.40;99.90;;;;;;6151832;23;20187;-69
2021/12/13 01:56:42;;;;;;;4.15;3.85;;;6.40;99.90;;;;;;6144652;23;20202;-71
2021/12/13 01:59:41;;;;;;;6.35;4.68;;;6.40;99.90;;;;;;6148116;23;20182;-71
2021/12/13 02:02:17;;;;;;;4.97;4.32;;;6.50;99.90;;;;;;6150624;23;20194;-72
2021/12/13 02:05:08;;;;;;;5.40;4.25;;;6.50;99.90;;;;;;6142959;23;20332;-69
2021/12/13 02:07:44;;;;;;;4.85;4.38;;;6.50;99.90;;;;;;6146075;23;20190;-71
2021/12/13 02:10:19;;;;;;;4.38;3.97;;;6.60;99.90;;;;;;6140427;23;20265;-72
2021/12/13 02:12:56;;;;;;;5.20;4.30;;;6.60;99.90;;;;;;6146723;23;20183;-68
2021/12/13 02:18:21;;;;;;;3.40;3.13;;;6.60;99.90;;;;;;6145840;23;20270;-73
2021/12/13 02:21:23;;;;;;;5.68;3.60;;;6.70;99.90;;;;;;6149063;23;20183;-76
2021/12/13 02:24:49;;;;;;;3.70;3.22;;;6.70;99.90;;;;;;5969812;23;20257;-75
2021/12/13 02:27:58;;;;;;;3.33;3.05;;;6.70;99.90;;;;;;6072640;23;20517;-77
2021/12/13 02:35:10;;;;;;;4.07;3.35;;;6.70;99.90;;;;;;5994516;23;20254;-75
2021/12/13 02:37:45;;;;;;;4.38;3.65;;;6.70;99.90;;;;;;6027135;23;20263;-73
2021/12/13 02:40:48;;;;;;;5.20;4.20;;;6.70;99.90;;;;;;6119250;23;20267;-79
2021/12/13 02:43:25;;;;;;;4.95;4.55;;;6.70;99.90;;;;;;6118942;23;20194;-78
2021/12/13 02:46:04;;;;;;;4.63;4.03;;;6.70;99.90;;;;;;6118002;23;20668;-79
2021/12/13 02:48:38;;;;;;;4.40;3.97;;;6.70;99.90;;;;;;6119229;23;20207;-80
2021/12/13 02:51:14;;;;;;;5.35;4.95;;;6.70;99.90;;;;;;6119662;23;20194;-74
2021/12/13 02:53:49;;;;;;;4.45;3.30;;;6.80;99.90;;;;;;6118678;23;20258;-73
2021/12/13 02:56:26;;;;;;;3.45;3.03;;;6.70;99.90;;;;;;6114467;23;20291;-70
2021/12/13 02:58:58;;;;;;;3.78;3.45;;;6.70;99.90;;;;;;6120435;23;20190;-71
2021/12/13 03:01:33;;;;;;;4.32;3.92;;;6.70;99.90;;;;;;6121119;23;20195;-71
2021/12/13 03:04:08;;;;;;;4.65;4.25;;;6.70;99.90;;;;;;6115695;23;20188;-71
2021/12/13 03:06:41;;;;;;;6.65;5.20;;;6.70;99.90;;;;;;6114225;23;20190;-72
2021/12/13 03:09:15;;;;;;;6.65;5.00;;;6.60;99.90;;;;;;6118178;23;20207;-70
2021/12/13 03:11:48;;;;;;;6.70;5.05;;;6.60;99.90;;;;;;6116892;23;20194;-70
2021/12/13 03:14:24;;;;;;;6.68;5.13;;;6.70;99.90;;;;;;6120766;23;20184;-70
2021/12/13 03:16:59;;;;;;;7.47;5.22;;;6.70;99.90;;;;;;6118387;23;20210;-70
2021/12/13 03:19:38;;;;;;;7.40;6.75;;;6.70;99.90;;;;;;6112893;23;20183;-69
2021/12/13 03:22:29;;;;;;;7.97;5.63;;;6.70;99.90;;;;;;6116434;23;20538;-69
2021/12/13 03:25:10;;;;;;;8.30;5.80;;;6.70;99.90;;;;;;6118463;23;20208;-71
2021/12/13 03:27:57;;;;;;;7.30;6.60;;;6.70;99.90;;;;;;6118626;23;20180;-71
2021/12/13 03:30:31;;;;;;;9.07;6.72;;;6.60;99.90;;;;;;6112709;23;20517;-71
2021/12/13 03:33:06;;;;;;;5.93;5.32;;;6.60;99.90;;;;;;6113496;23;20184;-69
2021/12/13 03:35:41;;;;;;;6.07;5.55;;;6.60;99.90;;;;;;6112386;23;20719;-69
2021/12/13 03:38:17;;;;;;;5.72;5.10;;;6.60;99.90;;;;;;6116429;23;20330;-69
2021/12/13 03:40:49;;;;;;;7.45;6.20;;;6.60;99.90;;;;;;6118293;23;20222;-69
2021/12/13 03:43:35;;;;;;;6.75;6.10;;;6.50;99.90;;;;;;6119771;23;20260;-69
2021/12/13 03:46:08;;;;;;;6.72;5.93;;;6.40;99.90;;;;;;6120539;23;20297;-71
2021/12/13 03:48:41;;;;;;;6.60;4.75;;;6.40;99.90;;;;;;6119496;23;20645;-75
2021/12/13 03:51:17;;;;;;;4.80;4.40;;;6.50;99.90;;;;;;6122128;23;21457;-74
2021/12/13 03:53:51;;;;;;;5.28;4.35;;;6.40;99.90;;;;;;6120120;23;20184;-70
2021/12/13 03:56:24;;;;;;;4.53;3.35;;;6.50;99.90;;;;;;6116020;23;20255;-70
2021/12/13 03:59:01;;;;;;;4.55;3.63;;;6.40;99.90;;;;;;6115888;23;20211;-70
2021/12/13 04:01:36;;;;;;;2.90;2.70;;;6.40;99.90;;;;;;6122687;23;20199;-71
2021/12/13 04:04:11;;;;;;;8.48;3.22;;;6.40;99.90;;;;;;6119080;23;20551;-71
2021/12/13 04:06:46;;;;;;;5.70;5.20;;;6.50;99.90;;;;;;6120377;23;20190;-68
2021/12/13 04:09:17;;;;;;;4.30;3.90;;;6.50;99.90;;;;;;6122285;23;20194;-70
2021/12/13 04:11:49;;;;;;;3.58;2.92;;;6.50;99.90;;;;;;6113606;23;20195;-70
2021/12/13 04:14:27;;;;;;;3.90;3.55;;;6.30;99.90;;;;;;6121762;23;20220;-70
2021/12/13 04:17:09;;;;;;;4.60;3.95;;;6.30;99.90;;;;;;6119873;23;20200;-74
2021/12/13 04:19:48;;;;;;;4.93;4.47;;;6.20;99.90;;;;;;6118998;23;20346;-71
2021/12/13 04:22:21;;;;;;;5.03;4.50;;;6.20;99.90;;;;;;6119704;23;20286;-73
2021/12/13 04:24:55;;;;;;;4.20;2.97;;;6.20;99.90;;;;;;6119652;23;20212;-72
2021/12/13 04:27:36;;;;;;;2.15;1.13;;;6.10;99.90;;;;;;6114428;23;20271;-72
2021/12/13 04:30:18;;;;;;;3.13;1.63;;;5.90;99.90;;;;;;6117833;23;20184;-72
2021/12/13 04:32:52;;;;;;;2.13;1.30;;;5.80;99.90;;;;;;6119945;23;20184;-72
2021/12/13 04:35:24;;;;;;;1.50;1.30;;;5.60;99.90;;;;;;6120936;23;20207;-72
2021/12/13 04:37:58;;;;;;;2.17;1.35;;;5.60;99.90;;;;;;6120058;23;20211;-73
2021/12/13 04:40:32;;;;;;;2.40;1.90;;;5.50;99.90;;;;;;6119625;23;20274;-71
2021/12/13 04:43:07;;;;;;;1.85;1.45;;;5.50;99.90;;;;;;6117157;23;20199;-72
2021/12/13 04:45:43;;;;;;;1.55;1.40;;;5.40;99.90;;;;;;6118187;23;20199;-75
2021/12/13 04:48:16;;;;;;;1.65;1.00;;;5.40;99.90;;;;;;6118475;23;20179;-72
2021/12/13 04:50:52;;;;;;;1.75;1.42;;;5.40;99.90;;;;;;6119439;23;20525;-74
2021/12/13 04:53:27;;;;;;;1.65;1.55;;;5.30;99.90;;;;;;6119001;23;20296;-75
2021/12/13 04:55:59;;;;;;;2.88;1.90;;;5.40;99.90;;;;;;6120183;23;20184;-74
2021/12/13 04:58:31;;;;;;;1.52;1.38;;;5.50;99.90;;;;;;6119647;23;20203;-76
2021/12/13 05:01:06;;;;;;;2.20;1.70;;;5.40;99.90;;;;;;6122352;23;20512;-74
2021/12/13 05:03:41;;;;;;;2.30;2.10;;;5.40;99.90;;;;;;6117586;23;20526;-74
2021/12/13 05:06:19;;;;;;;4.97;2.72;;;5.40;99.90;;;;;;6119779;23;20214;-75
2021/12/13 05:08:53;;;;;;;2.70;2.08;;;5.30;99.90;;;;;;6119936;23;20182;-72
2021/12/13 05:11:24;;;;;;;2.80;2.60;;;5.30;99.90;;;;;;6119744;23;20194;-73
2021/12/13 05:13:58;;;;;;;2.75;2.60;;;5.30;99.90;;;;;;6121852;23;20569;-72
2021/12/13 05:16:40;;;;;;;4.18;3.60;;;5.30;99.90;;;;;;6119208;23;20273;-73
2021/12/13 05:19:13;;;;;;;4.55;4.15;;;5.40;99.90;;;;;;6115421;23;20187;-71
2021/12/13 05:21:47;;;;;;;6.43;4.30;;;5.50;99.90;;;;;;6119478;23;20184;-73
2021/12/13 05:24:21;;;;;;;5.13;4.65;;;5.50;99.90;;;;;;6121152;23;20207;-73
2021/12/13 05:26:56;;;;;;;4.20;3.75;;;5.50;99.90;;;;;;6117596;23;20196;-71
2021/12/13 05:29:31;;;;;;;5.15;4.20;;;5.50;99.90;;;;;;6117090;23;20660;-71
2021/12/13 05:32:08;;;;;;;4.53;4.13;;;5.50;99.90;;;;;;6116711;23;20652;-72
2021/12/13 05:34:42;;;;;;;4.00;3.60;;;5.50;99.90;;;;;;6118116;23;20188;-72
2021/12/13 05:37:13;;;;;;;6.03;3.42;;;5.50;99.90;;;;;;6118237;23;20317;-74
2021/12/13 05:40:02;;;;;;;5.95;5.45;;;5.50;99.90;;;;;;6115823;23;20196;-76
2021/12/13 05:42:40;;;;;;;4.75;4.35;;;5.50;99.90;;;;;;6119835;23;20183;-73
2021/12/13 05:45:14;;;;;;;6.05;4.05;;;5.50;99.90;;;;;;6121102;23;20470;-69
2021/12/13 05:48:00;;;;;;;7.68;5.05;;;5.50;99.90;;;;;;6120631;23;20190;-72
2021/12/13 05:50:36;;;;;;;9.55;5.10;;;5.50;99.90;;;;;;6120227;23;20194;-76
2021/12/13 05:53:10;;;;;;;4.60;4.20;;;5.50;99.90;;;;;;6118508;23;20192;-71
2021/12/13 05:55:55;;;;;;;5.43;4.45;;;5.50;99.90;;;;;;6121811;23;20619;-71
2021/12/13 05:58:32;;;;;;;4.68;4.28;;;5.50;99.90;;;;;;6119021;23;20283;-70
2021/12/13 06:01:10;;;;;;;5.68;4.13;;;5.60;99.90;;;;;;6119011;23;20211;-70
2021/12/13 06:03:50;;;;;;;3.97;3.60;;;5.60;99.90;;;;;;6120075;23;20187;-70
2021/12/13 06:06:25;;;;;;;4.28;3.90;;;5.60;99.90;;;;;;6120007;23;20188;-71
2021/12/13 06:08:58;;;;;;;3.72;3.40;;;5.50;99.90;;;;;;6118490;23;20596;-70
2021/12/13 06:11:34;;;;;;;4.90;4.40;;;5.60;99.90;;;;;;6119118;23;20191;-71
2021/12/13 06:14:16;;;;;;;4.95;4.45;;;5.70;99.90;;;;;;6121837;23;20271;-72
2021/12/13 06:16:57;;;;;;;4.53;4.13;;;5.70;99.90;;;;;;6123121;23;20194;-72
2021/12/13 06:19:34;;;;;;;4.55;4.20;;;5.80;99.90;;;;;;6118434;23;20211;-71
2021/12/13 06:22:11;;;;;;;6.00;5.50;;;5.70;99.90;;;;;;6119538;23;20194;-71
2021/12/13 06:24:45;;;;;;;5.25;4.55;;;5.70;99.90;;;;;;6121406;23;20210;-71
2021/12/13 06:27:19;;;;;;;4.60;4.30;;;5.80;99.90;;;;;;6120171;23;20184;-72
2021/12/13 06:30:21;;;;;;;4.78;4.38;;;5.80;99.90;;;;;;6119280;23;20184;-71
2021/12/13 06:32:55;;;;;;;4.38;4.07;;;5.80;99.90;;;;;;6043195;23;20270;-72
2021/12/13 06:35:49;;;;;;;5.97;5.00;;;5.80;99.90;;;;;;6118639;23;20556;-73
2021/12/13 06:38:36;;;;;;;5.03;4.57;;;5.80;99.90;;;;;;6120236;23;20210;-72
2021/12/13 06:41:21;;;;;;;4.75;4.25;;;5.80;99.90;;;;;;6119743;23;20210;-72
2021/12/13 06:43:54;;;;;;;6.03;4.00;;;5.80;99.90;;;;;;6116844;23;20267;-70
2021/12/13 06:46:48;;;;;;;4.63;4.22;;;5.70;99.90;;;;;;6120720;23;20183;-72
2021/12/13 06:49:26;;;;;;;5.00;4.50;;;5.70;99.90;;;;;;6110521;23;20190;-71
2021/12/13 06:52:01;;;;;;;6.00;3.95;;;5.80;99.90;;;;;;6121248;23;20194;-71
2021/12/13 06:54:36;;;;;;;4.50;4.10;;;5.80;99.90;;;;;;6118798;23;20198;-71
2021/12/13 06:57:11;;;;;;;5.40;4.57;;;5.90;99.90;;;;;;6121434;23;20183;-72
2021/12/13 06:59:50;;;;;;;4.50;4.20;;;5.90;99.90;;;;;;6090590;23;20211;-71
2021/12/13 07:02:26;;;;;;;4.85;4.43;;;5.90;99.90;;;;;;6119104;23;20187;-71
2021/12/13 07:05:01;;;;;;;4.22;3.83;;;5.90;99.90;;;;;;6120325;23;20215;-71
2021/12/13 07:07:37;;;;;;;3.80;3.47;;;5.80;99.90;;;;;;6117114;23;20188;-71
2021/12/13 07:10:16;;;;;;;4.00;3.08;;;5.70;99.90;;;;;;6118609;23;20206;-71
2021/12/13 07:12:50;;;;;;;4.72;3.60;;;5.70;99.90;;;;;;6121269;23;20188;-71
2021/12/13 07:15:39;;;;;;;3.65;3.35;;;5.70;99.90;;;;;;6122292;23;20190;-72
2021/12/13 07:18:16;;;;;;;2.47;2.08;;;5.80;99.90;;;;;;6118195;23;20287;-71
2021/12/13 07:20:52;;;;;;;2.70;2.50;;;5.80;99.90;;;;;;6121598;23;20179;-71
2021/12/13 07:23:24;;;;;;;2.72;2.53;;;5.80;99.90;;;;;;6120680;23;20254;-71
2021/12/13 07:25:57;;;;;;;3.45;2.35;;;5.70;99.90;;;;;;6121317;23;20534;-71
2021/12/13 07:28:34;;;;;;;2.55;2.35;;;5.70;99.90;;;;;;6121018;23;20198;-70
2021/12/13 07:31:07;;;;;;;3.13;2.78;;;5.70;99.90;;;;;;6123256;23;20183;-71
2021/12/13 07:33:41;;;;;;;3.25;3.05;;;5.70;99.90;;;;;;6119117;23;20219;-71
2021/12/13 07:36:22;;;;;;;3.83;2.70;;;5.70;99.90;;;;;;6120847;23;20186;-71
2021/12/13 07:38:58;;;;;;;3.22;2.92;;;5.70;99.90;;;;;;6119748;23;20659;-71
2021/12/13 07:41:41;;;;;;;2.63;2.42;;;5.70;99.90;;;;;;6120713;23;20190;-71
2021/12/13 07:44:26;;;;;;;3.15;2.38;;;5.80;99.90;;;;;;6118352;23;20180;-70
2021/12/13 07:47:01;;;;;;;3.20;2.75;;;5.80;99.90;;;;;;6122051;23;20198;-71
2021/12/13 07:49:34;;;;;;;2.33;2.13;;;5.80;99.90;;;;;;6117952;23;20195;-71
2021/12/13 07:52:07;;;;;;;3.83;1.90;;;5.90;99.90;;;;;;6122882;23;20183;-71
2021/12/13 07:54:44;;;;;;;2.05;1.85;;;5.90;99.90;;;;;;6119616;23;20246;-71
2021/12/13 07:57:23;;;;;;;1.83;1.70;;;6.00;99.90;;;;;;6120956;23;20626;-71
2021/12/13 07:59:55;;;;;;;2.35;2.05;;;6.00;99.90;;;;;;6120221;23;20204;-71
2021/12/13 08:02:31;;;;;;;3.00;2.45;;;6.00;99.90;;;;;;6122365;23;20386;-70
2021/12/13 08:05:09;;;;;;;2.92;2.22;;;6.00;99.90;;;;;;6119121;23;20228;-70
2021/12/13 08:07:44;;;;;;;5.90;4.47;;;6.10;99.90;;;;;;6120192;23;20188;-70
2021/12/13 08:10:25;;;;;;;5.30;4.60;;;6.10;99.90;;;;;;6120107;23;20557;-71
2021/12/13 08:13:03;;;;;;;4.20;3.15;;;6.00;99.90;;;;;;6117906;23;20184;-71
2021/12/13 08:15:42;;;;;;;2.85;2.65;;;6.00;99.90;;;;;;6120347;23;20621;-70
2021/12/13 08:18:24;;;;;;;2.03;1.90;;;6.00;99.90;;;;;;6118724;23;20250;-71
2021/12/13 08:20:58;;;;;;;2.38;2.17;;;5.90;99.90;;;;;;6122132;23;20497;-71
2021/12/13 08:23:35;;;;;;;2.55;1.95;;;5.80;99.90;;;;;;6120036;23;20219;-72
2021/12/13 08:26:10;;;;;;;2.30;1.83;;;5.80;99.90;;;;;;6120287;23;20549;-72
2021/12/13 08:28:46;;;;;;;4.90;3.33;;;5.80;99.90;;;;;;6119543;23;20179;-72
2021/12/13 08:31:23;;;;;;;1.80;1.70;;;5.90;99.90;;;;;;6119797;23;20193;-71
2021/12/13 08:33:56;;;;;;;2.10;1.98;;;5.90;99.90;;;;;;6111910;23;20187;-72
2021/12/13 08:36:33;;;;;;;2.03;1.90;;;5.80;99.90;;;;;;6121802;23;20234;-72
2021/12/13 08:39:09;;;;;;;2.53;2.15;;;5.90;99.90;;;;;;6111130;23;20203;-71
2021/12/13 08:41:46;;;;;;;2.05;1.83;;;5.80;99.90;;;;;;6119642;23;20275;-71
2021/12/13 08:44:20;;;;;;;1.98;1.45;;;5.80;99.90;;;;;;6123760;23;20184;-70
2021/12/13 08:46:58;;;;;;;1.60;1.50;;;5.80;99.90;;;;;;6118709;23;20191;-70
2021/12/13 08:49:40;;;;;;;3.00;1.92;;;5.90;99.90;;;;;;6118883;23;20188;-71
2021/12/13 08:52:23;;;;;;;2.42;2.22;;;5.90;99.90;;;;;;6121699;23;20190;-71
2021/12/13 08:55:01;;;;;;;1.92;1.75;;;5.90;99.90;;;;;;6119848;23;20191;-71
2021/12/13 08:57:45;;;;;;;2.30;1.77;;;6.00;99.90;;;;;;6120066;23;20190;-72
2021/12/13 09:00:30;;;;;;;3.03;1.80;;;5.90;99.90;;;;;;6119356;23;20203;-72
2021/12/13 09:03:13;;;;;;;1.98;1.77;;;5.90;99.90;;;;;;6121849;23;20192;-70
2021/12/13 09:05:56;;;;;;;1.40;1.30;;;5.90;99.90;;;;;;6117909;23;20190;-71
2021/12/13 09:08:33;;;;;;;1.65;1.55;;;5.90;99.90;;;;;;6119691;23;20651;-71
2021/12/13 09:11:16;;;;;;;1.58;1.42;;;5.90;99.90;;;;;;6120034;23;20262;-71
2021/12/13 09:13:52;;;;;;;2.08;1.30;;;5.90;99.90;;;;;;6120844;23;20183;-71
2021/12/13 09:16:29;;;;;;;1.50;1.40;;;6.00;99.90;;;;;;6119430;23;20487;-72
2021/12/13 09:19:23;;;;;;;1.98;1.80;;;6.00;99.90;;;;;;6117965;23;20187;-71
2021/12/13 09:22:02;;;;;;;1.90;1.80;;;6.00;99.90;;;;;;6115564;23;20621;-71
2021/12/13 09:24:39;;;;;;;4.10;1.40;;;6.00;99.90;;;;;;6118920;23;20655;-72
2021/12/13 09:27:30;;;;;;;1.52;1.42;;;6.00;99.90;;;;;;6121779;23;20194;-72
2021/12/13 09:30:20;;;;;;;1.77;1.50;;;6.00;99.90;;;;;;6118699;23;20656;-71
2021/12/13 09:32:54;;;;;;;1.73;1.63;;;5.90;99.90;;;;;;6121534;23;20252;-72
2021/12/13 09:35:37;;;;;;;1.33;1.23;;;5.90;99.90;;;;;;6118005;23;20183;-73
2021/12/13 09:38:44;;;;;;;1.65;1.55;;;5.90;99.90;;;;;;6116959;23;20293;-72
2021/12/13 09:41:31;;;;;;;2.10;1.90;;;5.90;99.90;;;;;;6119170;23;20211;-71
2021/12/13 09:44:17;;;;;;;2.22;2.13;;;6.00;99.90;;;;;;6121264;23;20188;-73
2021/12/13 09:46:55;;;;;;;2.42;2.22;;;6.10;99.90;;;;;;6119241;23;20187;-72
2021/12/13 09:49:29;;;;;;;3.70;2.97;;;6.10;99.90;;;;;;6118252;23;20274;-72
2021/12/13 09:52:06;;;;;;;3.45;3.25;;;6.10;99.90;;;;;;6118125;23;20187;-71
2021/12/13 09:54:41;;;;;;;4.78;2.80;;;6.00;99.90;;;;;;6121017;23;20183;-72
2021/12/13 09:57:17;;;;;;;4.90;4.45;;;6.10;99.90;;;;;;6119035;23;20619;-72
2021/12/13 10:00:09;;;;;;;2.75;2.10;;;6.10;99.90;;;;;;6117337;23;20670;-71
2021/12/13 10:02:46;;;;;;;3.45;3.08;;;6.10;99.90;;;;;;6124471;23;20187;-71
2021/12/13 10:05:21;;;;;;;4.18;3.80;;;6.10;99.90;;;;;;6118354;23;20549;-71
2021/12/13 10:07:56;;;;;;;5.28;3.65;;;6.00;99.90;;;;;;6117257;23;20198;-72
2021/12/13 10:10:32;;;;;;;3.20;2.90;;;6.00;99.90;;;;;;6118750;23;20180;-72
2021/12/13 10:13:07;;;;;;;2.65;2.40;;;6.10;99.90;;;;;;6121703;23;20190;-71
2021/12/13 10:15:44;;;;;;;3.55;2.80;;;6.10;99.90;;;;;;6118830;23;20184;-71
2021/12/13 10:18:18;;;;;;;1.38;1.15;;;6.10;99.90;;;;;;6116496;23;20193;-71
2021/12/13 10:20:52;;;;;;;0.82;0.77;;;6.00;99.90;;;;;;6121161;23;20620;-71
2021/12/13 10:23:27;;;;;;;0.88;0.88;;;5.90;99.90;;;;;;6118786;23;20195;-70
2021/12/13 10:26:19;;;;;;;1.05;0.95;;;5.90;99.90;;;;;;6089395;23;20252;-71
2021/12/13 10:28:56;;;;;;;0.90;0.90;;;5.90;99.90;;;;;;6089270;23;20188;-69
2021/12/13 10:31:32;;;;;;;0.80;0.63;;;5.90;99.90;;;;;;6091635;23;20192;-70
2021/12/13 10:34:08;;;;;;;0.57;0.57;;;5.90;99.90;;;;;;6088928;23;20183;-70
2021/12/13 10:36:43;;;;;;;0.90;0.75;;;6.00;99.90;;;;;;6089621;23;20259;-69
2021/12/13 10:39:19;;;;;;;0.50;0.50;;;6.00;99.90;;;;;;6089389;23;20190;-69
2021/12/13 10:42:07;;;;;;;0.73;0.73;;;6.00;99.90;;;;;;6090125;23;20227;-69
2021/12/13 10:44:43;;;;;;;0.52;0.52;;;6.00;99.90;;;;;;6089261;23;20188;-72
2021/12/13 10:47:19;;;;;;;0.85;0.45;;;6.00;99.90;;;;;;6093848;23;20184;-71
2021/12/13 10:49:53;;;;;;;1.77;1.10;;;6.10;99.90;;;;;;6090494;23;20184;-72
2021/12/13 10:52:27;;;;;;;0.70;0.70;;;6.10;99.90;;;;;;6091954;23;20192;-71
2021/12/13 10:55:02;;;;;;;0.40;0.40;;;6.10;99.90;;;;;;6090843;23;20184;-71
2021/12/13 10:57:39;;;;;;;0.45;0.45;;;6.10;99.90;;;;;;6091873;23;20184;-71
2021/12/13 11:00:13;;;;;;;0.30;0.30;;;6.00;99.90;;;;;;6088952;23;20203;-72
2021/12/13 11:02:44;;;;;;;0.57;0.40;;;6.00;99.90;;;;;;6093838;23;20188;-69
2021/12/13 11:05:19;;;;;;;1.67;0.40;;;6.00;99.90;;;;;;6090244;23;20200;-72
2021/12/13 11:07:51;;;;;;;0.65;0.52;;;6.00;99.90;;;;;;6091886;23;20184;-70
2021/12/13 11:10:25;;;;;;;0.55;0.55;;;6.00;99.90;;;;;;6090747;23;20266;-72
2021/12/13 11:13:16;;;;;;;0.90;0.60;;;6.00;99.90;;;;;;6090565;23;20199;-70
2021/12/13 11:15:50;;;;;;;0.55;0.30;;;5.90;99.90;;;;;;6096131;23;20196;-69
2021/12/13 11:18:27;;;;;;;0.50;0.50;;;5.90;99.90;;;;;;6091083;23;20185;-69
2021/12/13 11:21:03;;;;;;;1.35;0.50;;;5.90;99.90;;;;;;6093322;23;20210;-70
2021/12/13 11:23:34;;;;;;;0.30;0.30;;;5.90;99.90;;;;;;6091245;23;20242;-69
2021/12/13 11:26:10;;;;;;;0.50;0.50;;;5.90;99.90;;;;;;6096387;23;20207;-70
2021/12/13 11:28:42;;;;;;;0.43;0.40;;;5.90;99.90;;;;;;6090922;23;20195;-71
2021/12/13 11:31:24;;;;;;;0.98;0.40;;;5.90;99.90;;;;;;6091357;23;20243;-69
2021/12/13 11:34:39;;;;;;;0.50;0.50;;;5.80;99.90;;;;;;6090167;23;20567;-70
2021/12/13 11:37:40;;;;;;;0.60;0.50;;;5.80;99.90;;;;;;6091397;23;20185;-69
2021/12/13 11:40:58;;;;;;;0.60;0.40;;;5.70;99.90;;;;;;6092676;23;20477;-70
2021/12/13 11:44:05;;;;;;;0.85;0.57;;;5.80;99.90;;;;;;6011489;23;20184;-71
2021/12/13 11:47:11;;;;;;;0.55;0.55;;;5.80;99.90;;;;;;6091509;23;20192;-70
2021/12/13 11:49:56;;;;;;;0.40;0.40;;;5.80;99.90;;;;;;6070479;23;20188;-70
2021/12/13 11:52:53;;;;;;;0.30;0.20;;;5.80;99.90;;;;;;6093052;23;20189;-69
2021/12/13 11:55:51;;;;;;;0.30;0.20;;;5.80;99.90;;;;;;6091096;23;20551;-69
2021/12/13 11:58:45;;;;;;;1.15;0.50;;;5.90;99.90;;;;;;6090400;23;20207;-71
2021/12/13 12:02:08;;;;;;;0.55;0.32;;;5.80;99.90;;;;;;6089049;23;20260;-71
2021/12/13 12:05:30;;;;;;;1.25;0.40;;;5.80;99.90;;;;;;6091845;23;20188;-70
2021/12/13 12:08:32;;;;;;;0.30;0.30;;;5.80;99.90;;;;;;6089370;23;20189;-69
2021/12/13 12:11:34;;;;;;;0.50;0.40;;;5.80;99.90;;;;;;6085605;23;20184;-69
2021/12/13 12:14:09;;;;;;;0.60;0.38;;;5.80;99.90;;;;;;6072480;23;20184;-71
2021/12/13 12:16:42;;;;;;;0.70;0.45;;;5.80;99.90;;;;;;6090797;23;20188;-70
2021/12/13 12:19:18;;;;;;;0.40;0.20;;;5.70;99.90;;;;;;6087667;23;20196;-71
2021/12/13 12:21:54;;;;;;;0.30;0.25;;;5.70;99.90;;;;;;6093158;23;20283;-71
2021/12/13 12:24:29;;;;;;;0.30;0.20;;;5.60;99.90;;;;;;6093952;23;20192;-71
2021/12/13 12:27:03;;;;;;;0.30;0.20;;;5.70;99.90;;;;;;6122464;23;20184;-71
2021/12/13 12:29:38;;;;;;;0.85;0.50;;;5.60;99.90;;;;;;6121435;23;20284;-70
2021/12/13 12:32:13;;;;;;;0.30;0.30;;;5.60;99.90;;;;;;6151800;23;20223;-71
2021/12/13 12:34:50;;;;;;;0.60;0.40;;;5.60;99.90;;;;;;6148534;23;20182;-71
2021/12/13 12:38:08;;;;;;;0.38;0.30;;;5.60;99.90;;;;;;6149913;23;20183;-71
2021/12/13 12:40:49;;;;;;;0.30;0.20;;;5.70;99.90;;;;;;6149281;23;20187;-71
2021/12/13 12:43:22;;;;;;;0.30;0.30;;;5.70;99.90;;;;;;6151470;23;20182;-71
2021/12/13 12:45:55;;;;;;;0.40;0.40;;;5.70;99.90;;;;;;6149299;23;20190;-71
2021/12/13 12:48:29;;;;;;;0.40;0.20;;;5.70;99.90;;;;;;6148289;23;20202;-71
2021/12/13 12:51:09;;;;;;;0.68;0.50;;;5.80;99.90;;;;;;6151273;23;20258;-70
2021/12/13 12:53:50;;;;;;;0.32;0.25;;;5.70;99.90;;;;;;6149030;23;20261;-70
2021/12/13 12:56:29;;;;;;;0.73;0.20;;;5.70;99.90;;;;;;6151469;23;20183;-70
2021/12/13 12:59:05;;;;;;;0.50;0.30;;;5.70;99.90;;;;;;6147029;23;20179;-70
2021/12/13 13:01:38;;;;;;;0.43;0.43;;;5.60;99.90;;;;;;6151472;23;20512;-71
2021/12/13 13:04:15;;;;;;;0.40;0.30;;;5.60;99.90;;;;;;6148084;23;20473;-70
2021/12/13 13:06:58;;;;;;;0.30;0.30;;;5.60;99.90;;;;;;6151359;23;20183;-71
2021/12/13 13:09:46;;;;;;;0.30;0.30;;;5.60;99.90;;;;;;6150844;23;20254;-71
2021/12/13 13:12:25;;;;;;;0.50;0.40;;;5.60;99.90;;;;;;6149177;23;20515;-71
2021/12/13 13:14:59;;;;;;;0.30;0.30;;;5.50;99.90;;;;;;6148663;23;20277;-71
2021/12/13 13:17:32;;;;;;;0.45;0.28;;;5.60;99.90;;;;;;6151093;23;20189;-71
2021/12/13 13:20:06;;;;;;;0.30;0.25;;;5.60;99.90;;;;;;6147879;23;20218;-71
2021/12/13 13:22:41;;;;;;;0.40;0.30;;;5.60;99.90;;;;;;6151062;23;20206;-70
2021/12/13 13:25:34;;;;;;;0.43;0.40;;;5.60;99.90;;;;;;6148555;23;20249;-71
2021/12/13 13:28:17;;;;;;;0.77;0.30;;;5.70;99.90;;;;;;6149014;23;20222;-71
2021/12/13 13:30:52;;;;;;;0.40;0.28;;;5.70;99.90;;;;;;6148852;23;20183;-71
2021/12/13 13:33:36;;;;;;;1.25;0.40;;;5.60;99.90;;;;;;6149883;23;20186;-71
2021/12/13 13:36:08;;;;;;;0.50;0.50;;;5.70;99.90;;;;;;6148528;23;20206;-71
2021/12/13 13:38:39;;;;;;;0.30;0.30;;;5.70;99.90;;;;;;6148295;23;20262;-70
2021/12/13 13:41:20;;;;;;;0.40;0.40;;;5.60;99.90;;;;;;6149449;23;20217;-70
2021/12/13 13:43:53;;;;;;;1.08;0.35;;;5.70;99.90;;;;;;6151734;23;20187;-71
2021/12/13 13:46:27;;;;;;;0.40;0.40;;;5.70;99.90;;;;;;6149165;23;20205;-71
2021/12/13 13:49:02;;;;;;;0.68;0.50;;;5.70;99.90;;;;;;6147973;23;20193;-71
2021/12/13 13:51:37;;;;;;;0.82;0.47;;;5.70;99.90;;;;;;6151292;23;20183;-71
2021/12/13 13:54:09;;;;;;;0.45;0.40;;;5.60;99.90;;;;;;6146372;23;20187;-71
2021/12/13 13:56:43;;;;;;;0.50;0.47;;;5.50;99.90;;;;;;6150520;23;20189;-71
2021/12/13 13:59:20;;;;;;;0.77;0.50;;;5.60;99.90;;;;;;6146370;23;20233;-71
2021/12/13 14:01:56;;;;;;;1.05;0.50;;;5.50;99.90;;;;;;6150765;23;20648;-71
2021/12/13 14:04:31;;;;;;;0.50;0.43;;;5.50;99.90;;;;;;6147183;23;20234;-71
2021/12/13 14:07:05;;;;;;;0.82;0.47;;;5.50;99.90;;;;;;6149173;23;20495;-72
2021/12/13 14:09:40;;;;;;;0.60;0.60;;;5.50;99.90;;;;;;6148658;23;20281;-71